createdAt,value
2023-02-17T00:01:22.133Z,-4.43
2023-02-17T00:06:28.512Z,-4.50
2023-02-17T00:11:32.389Z,-4.42
2023-02-17T00:16:37.476Z,-4.59
2023-02-17T00:21:40.887Z,-4.62
2023-02-17T00:26:44.550Z,-4.83
2023-02-17T00:31:49.696Z,-5.06
2023-02-17T00:36:53.251Z,-4.82
2023-02-17T00:41:56.595Z,-4.92
2023-02-17T00:47:01.393Z,-5.07
2023-02-17T00:52:04.881Z,-5.16
2023-02-17T00:57:08.241Z,-5.24
2023-02-17T01:02:13.124Z,-4.91
2023-02-17T01:07:16.503Z,-4.90
2023-02-17T01:12:20.167Z,-4.81
2023-02-17T01:17:25.073Z,-4.68
2023-02-17T01:22:28.790Z,-4.94
2023-02-17T01:27:32.276Z,-5.04
2023-02-17T01:32:38.293Z,-5.20
2023-02-17T01:37:41.982Z,-5.21
2023-02-17T01:42:46.110Z,-5.34
2023-02-17T01:47:55.785Z,-5.15
2023-02-17T01:53:02.135Z,-4.88
2023-02-17T01:58:08.986Z,-4.73
2023-02-17T02:03:15.504Z,-4.60
2023-02-17T02:08:18.952Z,-4.60
2023-02-17T02:13:22.339Z,-4.73
2023-02-17T02:18:55.134Z,-4.66
2023-02-17T02:24:07.861Z,-4.55
2023-02-17T02:29:33.702Z,-4.65
2023-02-17T02:34:43.463Z,-4.72
2023-02-17T02:39:50.577Z,-4.73
2023-02-17T02:44:53.954Z,-4.81
2023-02-17T02:49:58.694Z,-4.84
2023-02-17T02:55:04.868Z,-4.99
2023-02-17T03:00:21.092Z,-4.97
2023-02-17T03:05:32.714Z,-5.04
2023-02-17T03:10:36.322Z,-4.91
2023-02-17T03:15:39.879Z,-4.79
2023-02-17T03:20:50.456Z,-4.69
2023-02-17T03:25:53.826Z,-4.73
2023-02-17T03:30:57.664Z,-4.74
2023-02-17T03:36:02.559Z,-4.65
2023-02-17T03:41:06.187Z,-4.97
2023-02-17T03:46:12.952Z,-4.79
2023-02-17T03:51:20.067Z,-4.84
2023-02-17T03:56:23.724Z,-4.87
2023-02-17T04:01:27.178Z,-4.85
2023-02-17T04:06:32.211Z,-5.03
2023-02-17T04:11:35.785Z,-5.18
2023-02-17T04:16:39.475Z,-5.14
2023-02-17T04:21:44.426Z,-4.83
2023-02-17T04:26:47.793Z,-5.22
2023-02-17T04:31:51.430Z,-4.81
2023-02-17T04:36:56.416Z,-4.77
2023-02-17T04:41:59.956Z,-5.00
2023-02-17T04:47:03.492Z,-4.99
2023-02-17T04:52:08.527Z,-4.97
2023-02-17T04:57:11.989Z,-4.89
2023-02-17T05:02:15.396Z,-4.91
2023-02-17T05:07:20.377Z,-4.82
2023-02-17T05:12:23.756Z,-4.79
2023-02-17T05:17:27.120Z,-4.67
2023-02-17T05:22:32.062Z,-4.60
2023-02-17T05:27:35.611Z,-4.53
2023-02-17T05:32:39.129Z,-4.56
2023-02-17T05:37:43.851Z,-4.51
2023-02-17T05:42:47.085Z,-4.47
2023-02-17T05:47:50.587Z,-4.49
2023-02-17T05:52:55.488Z,-4.24
2023-02-17T05:57:58.920Z,-4.00
2023-02-17T06:03:02.444Z,-4.04
2023-02-17T06:08:07.524Z,-3.84
2023-02-17T06:13:11.208Z,-3.74
2023-02-17T06:18:15.107Z,-3.91
2023-02-17T06:23:20.117Z,-3.38
2023-02-17T06:28:23.647Z,-3.46
2023-02-17T06:33:27.129Z,-3.57
2023-02-17T06:38:32.257Z,-3.94
2023-02-17T06:43:35.836Z,-3.96
2023-02-17T06:48:39.431Z,-4.00
2023-02-17T06:53:44.345Z,-3.61
2023-02-17T06:58:48.099Z,-3.46
2023-02-17T07:03:51.625Z,-3.31
2023-02-17T07:08:56.874Z,-3.13
2023-02-17T07:14:00.409Z,-3.00
2023-02-17T07:19:04.123Z,-2.85
2023-02-17T07:24:10.241Z,-2.86
2023-02-17T07:29:13.631Z,-2.62
2023-02-17T07:34:17.187Z,-2.69
2023-02-17T07:39:22.198Z,-2.57
2023-02-17T07:44:25.574Z,-2.51
2023-02-17T07:49:29.536Z,-2.66
2023-02-17T07:54:34.519Z,-2.21
2023-02-17T07:59:37.559Z,-1.94
2023-02-17T08:04:41.119Z,-1.81
2023-02-17T08:10:03.747Z,-2.17
2023-02-17T08:15:08.971Z,-2.24
2023-02-17T08:20:15.988Z,-2.05
2023-02-17T08:25:20.887Z,-1.87
2023-02-17T08:30:24.419Z,-2.31
2023-02-17T08:35:29.673Z,-1.68
2023-02-17T08:40:34.502Z,-1.63
2023-02-17T08:45:37.901Z,-1.53
2023-02-17T08:50:41.427Z,-1.49
2023-02-17T08:55:49.456Z,-1.58
2023-02-17T09:00:53.362Z,-1.94
2023-02-17T09:05:57.083Z,-2.00
2023-02-17T09:11:02.360Z,-1.74
2023-02-17T09:16:06.800Z,-1.55
2023-02-17T09:21:12.280Z,-1.83
2023-02-17T09:26:19.375Z,-1.74
2023-02-17T09:31:24.937Z,-1.76
2023-02-17T09:36:30.712Z,-1.85
2023-02-17T09:41:40.774Z,-1.68
2023-02-17T09:47:00.924Z,-1.61
2023-02-17T09:52:12.324Z,-1.26
2023-02-17T09:57:22.170Z,-1.28
2023-02-17T10:02:31.186Z,-1.16
2023-02-17T10:07:39.566Z,-1.31
2023-02-17T10:12:48.660Z,-1.35
2023-02-17T10:17:58.597Z,-1.48
2023-02-17T10:23:07.362Z,-1.40
2023-02-17T10:28:19.819Z,-1.13
2023-02-17T10:33:30.214Z,-1.55
2023-02-17T10:38:46.096Z,-1.39
2023-02-17T10:43:52.291Z,-1.33
2023-02-17T10:48:57.280Z,-1.18
2023-02-17T10:54:06.795Z,-1.27
2023-02-17T10:59:18.258Z,-1.37
2023-02-17T11:04:21.691Z,-1.49
2023-02-17T11:09:28.972Z,-1.25
2023-02-17T11:14:37.808Z,-0.97
2023-02-17T11:19:41.553Z,-1.28
2023-02-17T11:24:45.144Z,-1.28
2023-02-17T11:29:49.957Z,-1.55
2023-02-17T11:34:57.692Z,-1.91
2023-02-17T11:40:01.572Z,-1.88
2023-02-17T11:45:19.966Z,-2.05
2023-02-17T11:50:41.452Z,-2.43
2023-02-17T11:55:55.837Z,-2.40
2023-02-17T12:01:07.411Z,-2.36
2023-02-17T12:06:16.147Z,-2.48
2023-02-17T12:11:30.085Z,-2.50
2023-02-17T12:16:47.104Z,-2.27
2023-02-17T12:22:03.424Z,-2.45
2023-02-17T12:27:17.368Z,-2.44
2023-02-17T12:32:36.242Z,-2.44
2023-02-17T12:37:48.488Z,-2.39
2023-02-17T12:42:58.153Z,-2.32
2023-02-17T12:48:07.121Z,-2.33
2023-02-17T12:53:16.788Z,-2.63
2023-02-17T12:58:23.382Z,-2.57
2023-02-17T13:03:31.335Z,-2.34
2023-02-17T13:08:42.554Z,-2.43
2023-02-17T13:13:46.252Z,-2.74
2023-02-17T13:18:53.144Z,-2.77
2023-02-17T13:24:01.890Z,-2.88
2023-02-17T13:29:12.699Z,-2.93
2023-02-17T13:34:28.431Z,-2.85
2023-02-17T13:39:35.388Z,-2.77
2023-02-17T13:44:42.010Z,-2.54
2023-02-17T13:49:53.944Z,-2.59
2023-02-17T13:54:59.688Z,-2.84
2023-02-17T14:00:11.697Z,-2.83
2023-02-17T14:05:21.121Z,-3.05
2023-02-17T14:10:28.184Z,-3.08
2023-02-17T14:15:31.771Z,-3.06
2023-02-17T14:20:37.966Z,-3.11
2023-02-17T14:25:45.031Z,-3.20
2023-02-17T14:30:49.132Z,-3.34
2023-02-17T14:35:56.929Z,-3.34
2023-02-17T14:41:01.412Z,-3.43
2023-02-17T14:46:05.780Z,-3.25
2023-02-17T14:51:14.717Z,-3.19
2023-02-17T14:56:23.989Z,-3.36
2023-02-17T15:01:27.968Z,-3.43
2023-02-17T15:06:42.185Z,-3.13
2023-02-17T15:11:49.043Z,-3.08
2023-02-17T15:16:52.472Z,-3.31
2023-02-17T15:22:01.432Z,-3.40
2023-02-17T15:27:06.133Z,-3.48
2023-02-17T15:32:18.337Z,-3.34
2023-02-17T15:37:23.211Z,-3.49
2023-02-17T15:42:29.266Z,-3.44
2023-02-17T15:47:32.784Z,-3.73
2023-02-17T15:52:37.561Z,-3.56
2023-02-17T15:57:42.088Z,-3.55
2023-02-17T16:02:45.744Z,-3.43
2023-02-17T16:07:50.815Z,-3.47
2023-02-17T16:12:56.840Z,-3.47
2023-02-17T16:18:00.828Z,-3.57
2023-02-17T16:23:05.598Z,-3.49
2023-02-17T16:28:13.843Z,-3.65
2023-02-17T16:33:18.254Z,-3.78
2023-02-17T16:38:24.979Z,-4.01
2023-02-17T16:43:30.820Z,-4.28
2023-02-17T16:48:37.400Z,-4.60
2023-02-17T16:53:42.271Z,-4.90
2023-02-17T16:58:46.604Z,-5.00
2023-02-17T17:03:50.099Z,-5.16
2023-02-17T17:08:55.510Z,-5.33
2023-02-17T17:13:59.223Z,-5.43
2023-02-17T17:19:03.486Z,-5.44
2023-02-17T17:24:08.343Z,-5.52
2023-02-17T17:29:13.691Z,-5.59
2023-02-17T17:34:17.068Z,-5.58
2023-02-17T17:39:24.621Z,-5.58
2023-02-17T17:44:28.751Z,-5.67
2023-02-17T17:49:32.240Z,-5.70
2023-02-17T17:54:37.192Z,-5.75
2023-02-17T17:59:40.567Z,-5.78
2023-02-17T18:04:44.328Z,-5.80
2023-02-17T18:09:49.379Z,-5.92
2023-02-17T18:14:55.744Z,-5.93
2023-02-17T18:19:59.455Z,-6.16
2023-02-17T18:25:04.675Z,-6.26
2023-02-17T18:30:10.672Z,-6.33
2023-02-17T18:35:15.207Z,-6.43
2023-02-17T18:40:21.714Z,-6.43
2023-02-17T18:45:25.724Z,-6.47
2023-02-17T18:50:33.197Z,-6.44
2023-02-17T18:55:39.773Z,-6.46
2023-02-17T19:00:43.139Z,-6.61
2023-02-17T19:05:46.695Z,-6.76
2023-02-17T19:10:52.118Z,-6.85
2023-02-17T19:15:55.785Z,-6.87
2023-02-17T19:20:59.228Z,-6.95
2023-02-17T19:26:05.623Z,-7.10
2023-02-17T19:31:11.554Z,-7.14
2023-02-17T19:36:17.794Z,-7.10
2023-02-17T19:41:23.012Z,-7.08
2023-02-17T19:46:26.618Z,-7.16
2023-02-17T19:51:29.962Z,-7.23
2023-02-17T19:56:36.596Z,-7.19
2023-02-17T20:01:42.937Z,-7.23
2023-02-17T20:06:48.736Z,-7.34
2023-02-17T20:11:53.744Z,-7.31
2023-02-17T20:16:57.160Z,-7.28
2023-02-17T20:22:01.367Z,-7.33
2023-02-17T20:27:06.379Z,-7.33
2023-02-17T20:32:09.859Z,-7.36
2023-02-17T20:37:13.533Z,-7.52
2023-02-17T20:42:18.479Z,-7.57
2023-02-17T20:47:21.980Z,-7.49
2023-02-17T20:52:25.729Z,-7.36
2023-02-17T20:57:30.689Z,-7.38
2023-02-17T21:02:34.247Z,-7.52
2023-02-17T21:07:37.826Z,-7.49
2023-02-17T21:12:42.752Z,-7.56
2023-02-17T21:17:46.684Z,-7.56
2023-02-17T21:22:50.155Z,-7.57
2023-02-17T21:27:54.933Z,-7.53
2023-02-17T21:32:58.471Z,-7.71
2023-02-17T21:38:01.898Z,-7.72
2023-02-17T21:43:23.904Z,-7.73
2023-02-17T21:48:27.596Z,-7.80
2023-02-17T21:53:30.944Z,-7.92
2023-02-17T21:58:36.467Z,-7.90
2023-02-17T22:03:39.876Z,-7.88
2023-02-17T22:08:43.382Z,-7.96
2023-02-17T22:13:49.238Z,-8.03
2023-02-17T22:18:53.187Z,-7.99
2023-02-17T22:23:56.608Z,-8.16
2023-02-17T22:29:01.494Z,-8.11
2023-02-17T22:34:07.276Z,-8.19
2023-02-17T22:39:11.036Z,-8.18
2023-02-17T22:44:15.911Z,-8.28
2023-02-17T22:49:19.457Z,-8.46
2023-02-17T22:54:22.948Z,-8.39
2023-02-17T22:59:27.952Z,-8.51
2023-02-17T23:04:31.541Z,-8.40
2023-02-17T23:09:35.093Z,-8.40
2023-02-17T23:14:41.338Z,-8.44
2023-02-17T23:19:44.855Z,-8.54
2023-02-17T23:24:48.882Z,-8.45
2023-02-17T23:29:53.781Z,-8.52
2023-02-17T23:34:57.185Z,-8.56
2023-02-17T23:40:00.529Z,-8.62
2023-02-17T23:45:05.841Z,-8.69
2023-02-17T23:50:27.327Z,-8.71
2023-02-17T23:55:30.684Z,-8.72
